createdAt,value
2022-12-03T00:00:00.467Z,992.9161
2022-12-03T00:01:00.615Z,992.9577
2022-12-03T00:02:00.833Z,992.786
2022-12-03T00:03:01.085Z,993.0001
2022-12-03T00:04:01.227Z,992.8881
2022-12-03T00:05:01.210Z,993.0861
2022-12-03T00:06:00.357Z,992.8813
2022-12-03T00:07:00.509Z,992.9653
2022-12-03T00:08:00.705Z,993.2056
2022-12-03T00:09:00.818Z,992.8881
2022-12-03T00:10:00.954Z,992.842
2022-12-03T00:11:01.099Z,992.8146
2022-12-03T00:12:01.244Z,992.9653
2022-12-03T00:13:00.391Z,992.842
2022-12-03T00:14:00.561Z,992.9093
2022-12-03T00:15:00.686Z,993.2722
2022-12-03T00:16:00.900Z,993.2722
2022-12-03T00:17:00.988Z,992.8426
2022-12-03T00:18:01.131Z,992.9515
2022-12-03T00:19:00.305Z,992.9515
2022-12-03T00:20:00.423Z,992.8632
2022-12-03T00:21:00.573Z,992.8881
2022-12-03T00:22:00.716Z,992.8214
2022-12-03T00:23:00.868Z,993.2056
2022-12-03T00:24:01.041Z,992.8774
2022-12-03T00:25:01.166Z,992.8076
2022-12-03T00:26:00.311Z,992.9097
2022-12-03T00:27:00.458Z,993.1637
2022-12-03T00:28:00.609Z,993.1289
2022-12-03T00:29:00.781Z,993.1011
2022-12-03T00:30:00.914Z,992.7448
2022-12-03T00:31:01.118Z,992.8848
2022-12-03T00:32:01.211Z,992.8426
2022-12-03T00:33:00.350Z,993.2474
2022-12-03T00:34:00.531Z,992.8706
2022-12-03T00:35:00.654Z,992.9093
2022-12-03T00:36:00.800Z,992.8632
2022-12-03T00:37:00.944Z,993.0001
2022-12-03T00:38:01.094Z,992.8426
2022-12-03T00:39:01.278Z,992.8774
2022-12-03T00:40:00.398Z,992.9093
2022-12-03T00:41:00.553Z,993.0513
2022-12-03T00:42:00.709Z,992.786
2022-12-03T00:43:00.844Z,992.786
2022-12-03T00:44:01.009Z,992.8881
2022-12-03T00:45:01.148Z,993.2722
2022-12-03T00:46:00.391Z,992.7236
2022-12-03T00:47:00.526Z,992.9795
2022-12-03T00:48:00.572Z,993.2722
2022-12-03T00:49:00.729Z,992.9373
2022-12-03T00:50:00.886Z,993.1707
2022-12-03T00:51:01.003Z,992.9795
2022-12-03T00:52:01.151Z,993.1142
2022-12-03T00:53:00.299Z,992.8881
2022-12-03T00:54:00.443Z,992.9933
2022-12-03T00:55:00.608Z,993.0001
2022-12-03T00:56:00.725Z,992.8701
2022-12-03T00:57:00.873Z,992.9721
2022-12-03T00:58:01.021Z,992.8881
2022-12-03T00:59:01.173Z,992.9373
2022-12-03T01:00:00.331Z,992.9161
2022-12-03T01:01:00.472Z,992.9085
2022-12-03T01:02:00.671Z,992.842
2022-12-03T01:03:00.754Z,992.8881
2022-12-03T01:04:00.894Z,992.8813
2022-12-03T01:05:01.140Z,992.758
2022-12-03T01:06:01.194Z,992.786
2022-12-03T01:07:00.336Z,992.758
2022-12-03T01:08:00.543Z,992.786
2022-12-03T01:09:00.632Z,992.786
2022-12-03T01:10:00.799Z,992.7792
2022-12-03T01:11:00.940Z,992.842
2022-12-03T01:12:01.109Z,992.8881
2022-12-03T01:13:01.251Z,992.786
2022-12-03T01:14:00.388Z,992.8277
2022-12-03T01:15:00.546Z,992.9223
2022-12-03T01:16:00.758Z,992.8201
2022-12-03T01:17:00.824Z,992.8905
2022-12-03T01:18:00.985Z,992.8208
2022-12-03T01:19:01.123Z,992.9857
2022-12-03T01:20:00.297Z,992.758
2022-12-03T01:21:00.435Z,992.8881
2022-12-03T01:22:00.582Z,992.7094
2022-12-03T01:23:00.733Z,992.7796
2022-12-03T01:24:00.873Z,992.9161
2022-12-03T01:25:01.042Z,992.7374
2022-12-03T01:26:01.172Z,992.786
2022-12-03T01:27:00.313Z,992.8632
2022-12-03T01:28:00.469Z,992.9515
2022-12-03T01:29:00.607Z,992.7654
2022-12-03T01:30:00.786Z,992.8494
2022-12-03T01:31:00.970Z,992.8214
2022-12-03T01:32:01.068Z,992.7094
2022-12-03T01:33:01.220Z,992.6888
2022-12-03T01:34:00.358Z,992.9028
2022-12-03T01:35:00.535Z,992.7448
2022-12-03T01:36:00.657Z,992.661
2022-12-03T01:37:00.822Z,992.773
2022-12-03T01:38:00.963Z,993.1011
2022-12-03T01:39:01.110Z,992.6964
2022-12-03T01:40:00.280Z,993.0014
2022-12-03T01:41:00.412Z,992.6964
2022-12-03T01:42:00.560Z,992.7668
2022-12-03T01:43:00.718Z,992.6684
2022-12-03T01:44:00.862Z,992.9248
2022-12-03T01:45:01.039Z,992.8084
2022-12-03T01:46:01.155Z,992.6336
2022-12-03T01:47:00.364Z,992.7034
2022-12-03T01:48:00.462Z,992.6896
2022-12-03T01:49:00.608Z,992.6684
2022-12-03T01:50:00.782Z,992.661
2022-12-03T01:51:00.912Z,992.6047
2022-12-03T01:52:01.096Z,992.5073
2022-12-03T01:53:01.214Z,992.5353
2022-12-03T01:54:00.384Z,992.7168
2022-12-03T01:55:00.503Z,992.6608
2022-12-03T01:56:00.660Z,992.717
2022-12-03T01:57:00.797Z,992.7026
2022-12-03T01:58:00.956Z,992.6396
2022-12-03T01:59:01.130Z,992.6608
2022-12-03T02:00:01.248Z,992.633
2022-12-03T02:01:00.393Z,992.6888
2022-12-03T02:02:00.569Z,992.6474
2022-12-03T02:03:00.690Z,992.5073
2022-12-03T02:04:00.900Z,992.7594
2022-12-03T02:05:00.982Z,992.5283
2022-12-03T02:06:01.132Z,992.5283
2022-12-03T02:07:00.276Z,992.7804
2022-12-03T02:08:00.494Z,992.7176
2022-12-03T02:09:00.588Z,992.5353
2022-12-03T02:10:00.714Z,992.5633
2022-12-03T02:11:01.225Z,992.4867
2022-12-03T02:12:01.002Z,992.5495
2022-12-03T02:13:01.155Z,992.7804
2022-12-03T02:14:00.319Z,992.5987
2022-12-03T02:15:00.452Z,992.6269
2022-12-03T02:16:00.667Z,992.5429
2022-12-03T02:17:00.749Z,992.6548
2022-12-03T02:18:00.926Z,992.648
2022-12-03T02:19:01.065Z,992.89
2022-12-03T02:20:01.196Z,992.6343
2022-12-03T02:21:00.328Z,992.7956
2022-12-03T02:22:00.480Z,992.6063
2022-12-03T02:23:00.623Z,992.5995
2022-12-03T02:24:00.805Z,992.7956
2022-12-03T02:25:00.929Z,992.8652
2022-12-03T02:26:01.077Z,992.8304
2022-12-03T02:27:01.226Z,992.8236
2022-12-03T02:28:00.360Z,992.7956
2022-12-03T02:29:00.530Z,992.7469
2022-12-03T02:30:00.664Z,992.7189
2022-12-03T02:31:00.903Z,992.7189
2022-12-03T02:32:00.971Z,992.7956
2022-12-03T02:33:01.109Z,992.7607
2022-12-03T02:34:00.279Z,992.8304
2022-12-03T02:35:00.411Z,992.4663
2022-12-03T02:36:03.896Z,992.711
2022-12-03T02:37:00.688Z,992.89
2022-12-03T02:38:00.858Z,992.897
2022-12-03T02:39:00.984Z,992.648
2022-12-03T02:40:01.133Z,992.6548
2022-12-03T02:41:00.285Z,992.7524
2022-12-03T02:42:00.428Z,992.6964
2022-12-03T02:43:00.614Z,992.655
2022-12-03T02:44:00.732Z,992.5709
2022-12-03T02:45:04.873Z,992.5707
2022-12-03T02:46:01.020Z,992.5283
2022-12-03T02:47:01.220Z,992.6055
2022-12-03T02:48:00.331Z,992.5987
2022-12-03T02:49:00.458Z,992.6267
2022-12-03T02:50:00.613Z,992.655
2022-12-03T02:51:00.749Z,992.704
2022-12-03T02:52:00.890Z,992.5435
2022-12-03T02:53:01.042Z,992.8304
2022-12-03T02:54:01.194Z,992.5155
2022-12-03T02:55:00.329Z,992.7956
2022-12-03T02:56:00.472Z,992.7956
2022-12-03T02:57:00.657Z,992.7607
2022-12-03T02:58:00.774Z,992.7607
2022-12-03T02:59:00.930Z,992.7956
2022-12-03T03:00:01.072Z,992.7956
2022-12-03T03:01:01.265Z,992.7607
2022-12-03T03:02:00.465Z,992.7189
2022-12-03T03:03:00.520Z,992.7189
2022-12-03T03:04:00.670Z,992.5229
2022-12-03T03:05:00.837Z,992.7956
2022-12-03T03:06:00.986Z,992.7956
2022-12-03T03:07:01.115Z,992.7607
2022-12-03T03:08:00.358Z,992.7956
2022-12-03T03:09:00.415Z,992.7956
2022-12-03T03:10:00.557Z,992.7189
2022-12-03T03:11:00.731Z,992.8309
2022-12-03T03:12:00.864Z,992.6215
2022-12-03T03:13:01.013Z,992.7607
2022-12-03T03:14:01.157Z,992.7956
2022-12-03T03:15:00.303Z,992.8728
2022-12-03T03:16:00.522Z,992.7189
2022-12-03T03:17:00.601Z,992.8976
2022-12-03T03:18:00.748Z,992.8168
2022-12-03T03:19:00.890Z,992.8516
2022-12-03T03:20:01.044Z,992.7189
2022-12-03T03:21:01.213Z,992.7189
2022-12-03T03:22:00.332Z,992.7887
2022-12-03T03:23:00.487Z,992.7887
2022-12-03T03:24:00.614Z,992.8304
2022-12-03T03:25:00.756Z,992.8304
2022-12-03T03:26:00.935Z,992.8304
2022-12-03T03:27:01.062Z,992.8304
2022-12-03T03:28:01.208Z,992.8304
2022-12-03T03:29:00.404Z,992.8304
2022-12-03T03:30:00.490Z,992.8304
2022-12-03T03:31:00.660Z,992.89
2022-12-03T03:32:00.875Z,992.89
2022-12-03T03:33:00.953Z,992.89
2022-12-03T03:34:01.102Z,992.8864
2022-12-03T03:35:01.252Z,992.7607
2022-12-03T03:36:00.413Z,992.7189
2022-12-03T03:37:00.545Z,992.7956
2022-12-03T03:38:00.709Z,992.7607
2022-12-03T03:39:00.845Z,992.8976
2022-12-03T03:40:01.016Z,992.8304
2022-12-03T03:41:01.136Z,992.7956
2022-12-03T03:42:00.280Z,992.5995
2022-12-03T03:43:00.417Z,992.8976
2022-12-03T03:44:00.582Z,992.7956
2022-12-03T03:45:00.734Z,992.8236
2022-12-03T03:46:00.920Z,992.8304
2022-12-03T03:47:01.011Z,992.7956
2022-12-03T03:48:01.166Z,992.7189
2022-12-03T03:49:00.324Z,992.7189
2022-12-03T03:50:00.481Z,992.6841
2022-12-03T03:51:00.600Z,992.7607
2022-12-03T03:52:00.756Z,992.8236
2022-12-03T03:53:00.895Z,992.7956
2022-12-03T03:54:01.054Z,992.7956
2022-12-03T03:55:01.207Z,992.676
2022-12-03T03:56:00.344Z,992.89
2022-12-03T03:57:00.468Z,992.6063
2022-12-03T03:58:00.638Z,992.5783
2022-12-03T03:59:00.752Z,992.8652
2022-12-03T04:00:00.900Z,992.4875
2022-12-03T04:01:01.152Z,992.8652
2022-12-03T04:02:01.177Z,992.5435
2022-12-03T04:03:00.348Z,992.8304
2022-12-03T04:04:00.596Z,992.5783
2022-12-03T04:05:00.615Z,992.4943
2022-12-03T04:06:00.760Z,992.5155
2022-12-03T04:07:00.905Z,992.4595
2022-12-03T04:08:01.174Z,992.4663
2022-12-03T04:09:01.192Z,992.8304
2022-12-03T04:10:00.334Z,992.6411
2022-12-03T04:11:00.494Z,992.5359
2022-12-03T04:12:00.640Z,992.5359
2022-12-03T04:13:00.801Z,992.5359
2022-12-03T04:14:01.000Z,992.5429
2022-12-03T04:15:01.083Z,992.5359
2022-12-03T04:16:01.237Z,992.5987
2022-12-03T04:17:00.468Z,992.4383
2022-12-03T04:18:00.533Z,992.6199
2022-12-03T04:19:00.662Z,992.4587
2022-12-03T04:20:00.812Z,992.5709
2022-12-03T04:21:00.956Z,992.5429
2022-12-03T04:22:01.104Z,992.4663
2022-12-03T04:23:01.281Z,992.5359
2022-12-03T04:24:00.400Z,992.6267
2022-12-03T04:25:00.548Z,992.5003
2022-12-03T04:26:00.706Z,992.4655
2022-12-03T04:27:00.855Z,992.3535
2022-12-03T04:28:01.031Z,992.4793
2022-12-03T04:29:01.148Z,992.4929
2022-12-03T04:30:00.293Z,992.4647
2022-12-03T04:31:00.457Z,992.4367
2022-12-03T04:32:00.574Z,992.4785
2022-12-03T04:33:00.749Z,992.4087
2022-12-03T04:34:00.880Z,992.6049
2022-12-03T04:35:01.188Z,992.5767
2022-12-03T04:36:01.251Z,992.6466
2022-12-03T04:37:00.357Z,992.5625
2022-12-03T04:38:00.511Z,992.5207
2022-12-03T04:39:00.740Z,992.5413
2022-12-03T04:40:00.796Z,992.4779
2022-12-03T04:41:00.961Z,992.4499
2022-12-03T04:42:01.093Z,992.5339
2022-12-03T04:43:01.237Z,992.4499
2022-12-03T04:44:00.398Z,992.4499
2022-12-03T04:45:00.533Z,992.4779
2022-12-03T04:46:00.765Z,992.3726
2022-12-03T04:47:00.835Z,992.4007
2022-12-03T04:48:00.999Z,992.4287
2022-12-03T04:49:01.134Z,992.4779
2022-12-03T04:50:00.292Z,992.3939
2022-12-03T04:51:00.446Z,992.4995
2022-12-03T04:52:00.593Z,992.3809
2022-12-03T04:53:00.732Z,992.2966
2022-12-03T04:54:00.943Z,992.5555
2022-12-03T04:55:01.053Z,992.4155
2022-12-03T04:56:01.197Z,992.3247
2022-12-03T04:57:00.338Z,992.4369
2022-12-03T04:58:00.476Z,992.4233
2022-12-03T04:59:00.644Z,992.3393
2022-12-03T05:00:00.806Z,992.3741
2022-12-03T05:01:00.995Z,992.3249
2022-12-03T05:02:01.100Z,992.4087
2022-12-03T05:03:01.302Z,992.2969
2022-12-03T05:04:00.367Z,992.3315
2022-12-03T05:05:00.529Z,992.3315
2022-12-03T05:06:00.680Z,992.4087
2022-12-03T05:07:00.817Z,992.3527
2022-12-03T05:08:01.075Z,992.4785
2022-12-03T05:09:01.089Z,992.2688
2022-12-03T05:10:01.232Z,992.2688
2022-12-03T05:11:00.398Z,992.5065
2022-12-03T05:12:00.524Z,992.4087
2022-12-03T05:13:00.669Z,992.3665
2022-12-03T05:14:00.890Z,992.2966
2022-12-03T05:15:00.959Z,992.3945
2022-12-03T05:16:01.124Z,992.4087
2022-12-03T05:17:01.319Z,992.3529
2022-12-03T05:18:00.389Z,992.4369
2022-12-03T05:19:00.542Z,992.4369
2022-12-03T05:20:00.684Z,992.3529
2022-12-03T05:21:00.864Z,992.3809
2022-12-03T05:22:00.988Z,992.2553
2022-12-03T05:23:01.121Z,992.3249
2022-12-03T05:24:00.257Z,992.2688
2022-12-03T05:25:00.414Z,992.4087
2022-12-03T05:26:00.588Z,992.3595
2022-12-03T05:27:00.705Z,992.3807
2022-12-03T05:28:00.867Z,992.4087
2022-12-03T05:29:01.002Z,992.3809
2022-12-03T05:30:01.159Z,992.2621
2022-12-03T05:31:00.416Z,992.3043
2022-12-03T05:32:00.454Z,992.2975
2022-12-03T05:33:00.608Z,992.3323
2022-12-03T05:34:00.768Z,992.2067
2022-12-03T05:35:00.885Z,992.4375
2022-12-03T05:36:01.048Z,992.3187
2022-12-03T05:37:01.220Z,992.2069
2022-12-03T05:38:00.363Z,992.3749
2022-12-03T05:39:00.502Z,992.3119
2022-12-03T05:40:00.648Z,992.4663
2022-12-03T05:41:00.825Z,992.3127
2022-12-03T05:42:00.949Z,992.3407
2022-12-03T05:43:01.094Z,992.4041
2022-12-03T05:44:01.249Z,992.4109
2022-12-03T05:45:00.403Z,992.4247
2022-12-03T05:46:00.625Z,992.5435
2022-12-03T05:47:00.705Z,992.4315
2022-12-03T05:48:00.858Z,992.4389
2022-12-03T05:49:00.999Z,992.2989
2022-12-03T05:50:01.145Z,992.4669
2022-12-03T05:51:00.302Z,992.6215
2022-12-03T05:52:00.460Z,992.7189
2022-12-03T05:53:00.592Z,992.3195
2022-12-03T05:54:00.722Z,992.3195
2022-12-03T05:55:00.873Z,992.3407
2022-12-03T05:56:01.035Z,992.2709
2022-12-03T05:57:01.213Z,992.4315
2022-12-03T05:58:00.335Z,992.3195
2022-12-03T05:59:00.484Z,992.3195
2022-12-03T06:00:00.621Z,992.3755
2022-12-03T06:01:00.776Z,992.2847
2022-12-03T06:02:01.014Z,992.6215
2022-12-03T06:03:01.177Z,992.1946
2022-12-03T06:04:01.382Z,992.3066
2022-12-03T06:05:00.373Z,992.3416
2022-12-03T06:06:00.511Z,992.3346
2022-12-03T06:07:00.670Z,992.2362
2022-12-03T06:08:00.886Z,992.2429
2022-12-03T06:09:01.068Z,992.3549
2022-12-03T06:10:01.100Z,992.4321
2022-12-03T06:11:01.245Z,992.2506
2022-12-03T06:12:00.411Z,992.3346
2022-12-03T06:13:00.546Z,992.4186
2022-12-03T06:14:00.698Z,992.6145
2022-12-03T06:15:00.849Z,992.6145
2022-12-03T06:16:01.082Z,992.3346
2022-12-03T06:17:01.163Z,992.2652
2022-12-03T06:18:00.280Z,992.3906
2022-12-03T06:19:00.425Z,992.6145
2022-12-03T06:20:00.575Z,992.5731
2022-12-03T06:21:00.732Z,992.4754
2022-12-03T06:22:00.900Z,992.6145
2022-12-03T06:23:01.029Z,992.6145
2022-12-03T06:24:01.273Z,992.6145
2022-12-03T06:25:06.186Z,992.3626
2022-12-03T06:26:00.468Z,992.6145
2022-12-03T06:27:00.627Z,992.6145
2022-12-03T06:28:00.756Z,992.5172
2022-12-03T06:29:00.911Z,992.4406
2022-12-03T06:30:01.073Z,992.371
2022-12-03T06:31:01.225Z,992.4754
2022-12-03T06:32:00.339Z,992.4406
2022-12-03T06:33:00.487Z,992.4754
2022-12-03T06:34:00.630Z,992.5661
2022-12-03T06:35:00.796Z,992.5172
2022-12-03T06:36:00.926Z,992.5172
2022-12-03T06:37:01.088Z,992.4754
2022-12-03T06:38:01.224Z,992.5382
2022-12-03T06:39:00.375Z,992.406
2022-12-03T06:40:00.524Z,992.371
2022-12-03T06:41:00.667Z,992.406
2022-12-03T06:42:00.834Z,992.378
2022-12-03T06:43:00.963Z,992.371
2022-12-03T06:44:01.115Z,992.4058
2022-12-03T06:45:00.255Z,992.4058
2022-12-03T06:46:00.443Z,992.4058
2022-12-03T06:47:00.638Z,992.5172
2022-12-03T06:48:00.706Z,992.5172
2022-12-03T06:49:00.853Z,992.6145
2022-12-03T06:50:01.001Z,992.6501
2022-12-03T06:51:01.148Z,992.5873
2022-12-03T06:52:00.314Z,992.4754
2022-12-03T06:53:00.433Z,992.4754
2022-12-03T06:54:00.578Z,992.7545
2022-12-03T06:55:00.728Z,992.6145
2022-12-03T06:56:00.876Z,992.6145
2022-12-03T06:57:01.041Z,992.6145
2022-12-03T06:58:01.192Z,992.5229
2022-12-03T06:59:00.317Z,992.4949
2022-12-03T07:00:00.470Z,992.5172
2022-12-03T07:01:00.623Z,992.5172
2022-12-03T07:02:00.832Z,992.6145
2022-12-03T07:03:00.983Z,992.6215
2022-12-03T07:04:01.077Z,992.6145
2022-12-03T07:05:01.239Z,992.6145
2022-12-03T07:06:00.374Z,992.3626
2022-12-03T07:07:00.512Z,992.7189
2022-12-03T07:08:00.713Z,992.4669
2022-12-03T07:09:00.812Z,992.3475
2022-12-03T07:10:00.995Z,992.3891
2022-12-03T07:11:01.125Z,992.4103
2022-12-03T07:12:00.260Z,992.5359
2022-12-03T07:13:00.401Z,992.4451
2022-12-03T07:14:05.191Z,992.4239
2022-12-03T07:15:00.722Z,992.5147
2022-12-03T07:16:00.907Z,992.3815
2022-12-03T07:17:01.010Z,992.3323
2022-12-03T07:18:01.146Z,992.3673
2022-12-03T07:19:00.312Z,992.3043
2022-12-03T07:20:00.452Z,992.4301
2022-12-03T07:21:00.598Z,992.2553
2022-12-03T07:22:00.751Z,992.4163
2022-12-03T07:23:00.890Z,992.5147
2022-12-03T07:24:01.068Z,992.4587
2022-12-03T07:25:01.201Z,992.4519
2022-12-03T07:26:00.345Z,992.3195
2022-12-03T07:27:00.505Z,992.3755
2022-12-03T07:28:00.649Z,992.3066
2022-12-03T07:29:00.806Z,992.3626
2022-12-03T07:30:00.957Z,992.6215
2022-12-03T07:31:01.181Z,992.3492
2022-12-03T07:32:01.256Z,992.6145
2022-12-03T07:33:00.381Z,992.6145
2022-12-03T07:34:00.530Z,992.4109
2022-12-03T07:35:00.678Z,992.3626
2022-12-03T07:36:00.837Z,992.2856
2022-12-03T07:37:00.990Z,992.1946
2022-12-03T07:38:01.120Z,992.4103
2022-12-03T07:39:00.272Z,992.3331
2022-12-03T07:40:00.408Z,992.3189
2022-12-03T07:41:00.553Z,992.2763
2022-12-03T07:42:00.733Z,992.3181
2022-12-03T07:43:00.852Z,992.2612
2022-12-03T07:44:00.989Z,992.2818
2022-12-03T07:45:01.143Z,992.3234
2022-12-03T07:46:00.288Z,992.4142
2022-12-03T07:47:00.556Z,992.4975
2022-12-03T07:48:00.599Z,992.3288
2022-12-03T07:49:00.738Z,992.4476
2022-12-03T07:50:00.883Z,992.4192
2022-12-03T07:51:01.029Z,992.4963
2022-12-03T07:52:01.169Z,992.4472
2022-12-03T07:53:00.342Z,992.419
2022-12-03T07:54:00.467Z,992.3423
2022-12-03T07:55:00.613Z,992.3912
2022-12-03T07:56:00.766Z,992.6005
2022-12-03T07:57:01.649Z,992.5165
2022-12-03T07:58:01.076Z,992.5165
2022-12-03T07:59:01.230Z,992.474
2022-12-03T08:00:00.349Z,992.3059
2022-12-03T08:01:00.579Z,992.3265
2022-12-03T08:02:00.713Z,992.3613
2022-12-03T08:03:00.791Z,992.5507
2022-12-03T08:04:00.952Z,992.3551
2022-12-03T08:05:01.093Z,992.4672
2022-12-03T08:06:01.267Z,992.5033
2022-12-03T08:07:00.398Z,992.4392
2022-12-03T08:08:00.608Z,992.278
2022-12-03T08:09:00.700Z,992.3265
2022-12-03T08:10:00.864Z,992.2492
2022-12-03T08:11:01.008Z,992.4734
2022-12-03T08:12:01.155Z,992.2704
2022-12-03T08:13:00.306Z,992.3401
2022-12-03T08:14:00.483Z,992.3825
2022-12-03T08:15:00.598Z,992.2984
2022-12-03T08:16:00.834Z,992.3959
2022-12-03T08:17:00.890Z,992.487
2022-12-03T08:18:01.054Z,992.487
2022-12-03T08:19:01.202Z,992.4303
2022-12-03T08:20:00.358Z,992.4303
2022-12-03T08:21:00.498Z,992.4652
2022-12-03T08:22:01.624Z,992.5349
2022-12-03T08:23:00.789Z,992.5697
2022-12-03T08:24:00.938Z,992.2749
2022-12-03T08:25:01.104Z,992.3652
2022-12-03T08:26:01.226Z,992.2312
2022-12-03T08:27:00.371Z,992.3295
2022-12-03T08:28:00.510Z,992.1052
2022-12-03T08:29:00.665Z,992.3714
2022-12-03T08:30:00.839Z,992.3289
2022-12-03T08:31:00.989Z,992.1205
2022-12-03T08:32:01.194Z,992.2248
2022-12-03T08:33:00.262Z,992.3714
2022-12-03T08:34:00.416Z,992.4064
2022-12-03T08:35:00.555Z,992.2312
2022-12-03T08:36:00.707Z,992.5797
2022-12-03T08:37:00.852Z,992.4675
2022-12-03T08:38:00.994Z,992.2992
2022-12-03T08:39:01.138Z,992.3477
2022-12-03T08:40:00.282Z,992.3538
2022-12-03T08:41:00.440Z,992.41
2022-12-03T08:42:00.599Z,992.438
2022-12-03T08:43:00.715Z,992.41
2022-12-03T08:44:00.863Z,992.5565
2022-12-03T08:45:01.015Z,992.3745
2022-12-03T08:46:01.218Z,992.5428
2022-12-03T08:47:00.319Z,992.3751
2022-12-03T08:48:00.439Z,992.4025
2022-12-03T08:49:00.566Z,992.4442
2022-12-03T08:50:00.746Z,992.4442
2022-12-03T08:51:00.869Z,992.423
2022-12-03T08:52:01.021Z,992.429
2022-12-03T08:53:01.131Z,992.6044
2022-12-03T08:54:02.220Z,992.5613
2022-12-03T08:55:00.432Z,992.4845
2022-12-03T08:56:00.569Z,992.5256
2022-12-03T08:57:00.737Z,992.4762
2022-12-03T08:58:00.896Z,992.483
2022-12-03T08:59:01.026Z,992.5324
2022-12-03T09:00:01.259Z,992.5536
2022-12-03T09:01:00.404Z,992.6174
2022-12-03T09:02:00.475Z,992.6599
2022-12-03T09:03:00.631Z,992.5482
2022-12-03T09:04:00.815Z,992.5687
2022-12-03T09:05:00.904Z,992.5051
2022-12-03T09:06:01.075Z,992.6659
2022-12-03T09:07:01.188Z,992.5885
2022-12-03T09:08:00.435Z,992.6022
2022-12-03T09:09:05.297Z,992.5111
2022-12-03T09:10:00.638Z,992.5596
2022-12-03T09:11:00.792Z,992.7062
2022-12-03T09:12:00.943Z,992.4482
2022-12-03T09:13:01.104Z,992.5111
2022-12-03T09:14:01.241Z,992.5931
2022-12-03T09:15:00.369Z,992.4944
2022-12-03T09:16:00.532Z,992.6349
2022-12-03T09:17:00.769Z,992.5089
2022-12-03T09:18:00.826Z,992.5931
2022-12-03T09:19:00.969Z,992.8459
2022-12-03T09:20:01.142Z,992.6212
2022-12-03T09:21:01.257Z,992.6561
2022-12-03T09:22:00.398Z,992.4808
2022-12-03T09:23:00.574Z,992.5787
2022-12-03T09:24:00.700Z,992.7253
2022-12-03T09:25:00.846Z,992.7183
2022-12-03T09:26:00.982Z,992.4719
2022-12-03T09:27:01.137Z,992.5069
2022-12-03T09:28:00.290Z,992.5
2022-12-03T09:29:00.428Z,992.5486
2022-12-03T09:30:00.579Z,992.5614
2022-12-03T09:31:00.730Z,992.5546
2022-12-03T09:32:00.932Z,992.4916
2022-12-03T09:33:01.043Z,992.5614
2022-12-03T09:34:01.183Z,992.4771
2022-12-03T09:35:00.334Z,992.5403
2022-12-03T09:36:00.457Z,992.547
2022-12-03T09:37:00.616Z,992.4265
2022-12-03T09:38:00.786Z,992.5032
2022-12-03T09:39:00.908Z,992.5032
2022-12-03T09:40:01.048Z,992.727
2022-12-03T09:41:01.204Z,992.4728
2022-12-03T09:42:00.342Z,992.4797
2022-12-03T09:43:00.525Z,992.501
2022-12-03T09:44:05.340Z,992.5152
2022-12-03T09:45:00.800Z,992.4447
2022-12-03T09:46:00.982Z,992.5845
2022-12-03T09:47:01.095Z,992.6194
2022-12-03T09:48:01.259Z,992.3945
2022-12-03T09:49:00.380Z,992.6194
2022-12-03T09:50:00.530Z,992.4867
2022-12-03T09:51:00.680Z,992.459
2022-12-03T09:52:00.834Z,992.4028
2022-12-03T09:53:01.001Z,992.3178
2022-12-03T09:54:01.137Z,992.3383
2022-12-03T09:55:00.330Z,992.3664
2022-12-03T09:56:00.479Z,992.4867
2022-12-03T09:57:00.615Z,992.3474
2022-12-03T09:58:00.774Z,992.3065
2022-12-03T09:59:00.880Z,992.3209
2022-12-03T10:00:01.045Z,992.4422
2022-12-03T10:01:01.266Z,992.2887
2022-12-03T10:02:00.486Z,992.3162
2022-12-03T10:03:00.467Z,992.2524
2022-12-03T10:04:00.663Z,992.3984
2022-12-03T10:05:00.834Z,992.2219
2022-12-03T10:06:00.893Z,992.3761
2022-12-03T10:07:01.049Z,992.3065
2022-12-03T10:08:01.327Z,992.2426
2022-12-03T10:09:00.373Z,992.1513
2022-12-03T10:10:00.497Z,992.1794
2022-12-03T10:11:00.658Z,992.206
2022-12-03T10:12:00.794Z,992.4028
2022-12-03T10:13:00.936Z,992.1779
2022-12-03T10:14:01.116Z,992.4028
2022-12-03T10:15:01.240Z,992.4028
2022-12-03T10:16:00.387Z,992.4028
2022-12-03T10:17:00.606Z,992.1779
2022-12-03T10:18:00.684Z,992.0367
2022-12-03T10:19:00.839Z,992.1415
2022-12-03T10:20:00.997Z,992.1133
2022-12-03T10:21:01.110Z,992.0991
2022-12-03T10:22:00.260Z,992.0991
2022-12-03T10:23:00.402Z,992.2107
2022-12-03T10:24:00.559Z,992.0905
2022-12-03T10:25:00.712Z,991.9721
2022-12-03T10:26:00.878Z,992.0085
2022-12-03T10:27:00.995Z,991.9378
2022-12-03T10:28:01.177Z,992.0002
2022-12-03T10:29:00.292Z,992.1263
2022-12-03T10:30:00.452Z,992.0002
2022-12-03T10:31:00.695Z,992.0413
2022-12-03T10:32:00.747Z,992.1668
2022-12-03T10:33:00.898Z,992.1395
2022-12-03T10:34:01.050Z,992.0262
2022-12-03T10:35:01.170Z,992.0106
2022-12-03T10:36:00.313Z,992.0737
2022-12-03T10:37:00.464Z,991.8752
2022-12-03T10:38:00.624Z,992.0007
2022-12-03T10:39:00.784Z,992.0706
2022-12-03T10:40:00.916Z,992.1476
2022-12-03T10:41:01.065Z,992.2176
2022-12-03T10:42:01.217Z,991.9772
2022-12-03T10:43:00.359Z,991.9277
2022-12-03T10:44:00.531Z,991.794
2022-12-03T10:45:00.662Z,991.9422
2022-12-03T10:46:04.137Z,991.9286
2022-12-03T10:47:01.036Z,991.816
2022-12-03T10:48:01.100Z,992.0706
2022-12-03T10:49:01.251Z,992.0427
2022-12-03T10:50:00.391Z,991.9005
2022-12-03T10:51:00.529Z,992.0542
2022-12-03T10:52:00.687Z,991.8859
2022-12-03T10:53:00.838Z,991.8569
2022-12-03T10:54:00.990Z,991.9772
2022-12-03T10:55:01.142Z,991.885
2022-12-03T10:56:00.286Z,991.9339
2022-12-03T10:57:00.413Z,991.7995
2022-12-03T10:58:00.575Z,991.752
2022-12-03T10:59:00.713Z,991.8083
2022-12-03T11:00:00.855Z,991.816
2022-12-03T11:01:01.143Z,991.641
2022-12-03T11:02:01.385Z,991.6203
2022-12-03T11:03:00.300Z,991.9658
2022-12-03T11:04:00.506Z,991.7987
2022-12-03T11:05:00.610Z,991.6306
2022-12-03T11:06:00.780Z,991.7574
2022-12-03T11:07:00.893Z,991.7574
2022-12-03T11:08:01.126Z,991.7156
2022-12-03T11:09:05.422Z,991.6875
2022-12-03T11:10:00.333Z,991.6247
2022-12-03T11:11:00.520Z,991.6312
2022-12-03T11:12:00.687Z,991.6031
2022-12-03T11:13:00.778Z,991.5886
2022-12-03T11:14:00.926Z,991.6371
2022-12-03T11:15:01.070Z,991.6371
2022-12-03T11:16:01.265Z,991.756
2022-12-03T11:17:00.360Z,991.6281
2022-12-03T11:18:00.512Z,991.7125
2022-12-03T11:19:00.674Z,991.7125
2022-12-03T11:20:00.834Z,991.7688
2022-12-03T11:21:00.962Z,991.5743
2022-12-03T11:22:01.096Z,991.6092
2022-12-03T11:23:01.241Z,991.5829
2022-12-03T11:24:00.385Z,991.575
2022-12-03T11:25:00.563Z,991.6861
2022-12-03T11:26:00.688Z,991.8189
2022-12-03T11:27:00.844Z,991.756
2022-12-03T11:28:00.976Z,991.7211
2022-12-03T11:29:01.115Z,991.5605
2022-12-03T11:30:00.371Z,991.4906
2022-12-03T11:31:00.442Z,991.4591
2022-12-03T11:32:00.563Z,991.4736
2022-12-03T11:33:00.737Z,991.4387
2022-12-03T11:34:00.850Z,991.4992
2022-12-03T11:35:01.007Z,991.5759
2022-12-03T11:36:01.134Z,991.7438
2022-12-03T11:37:01.519Z,991.673
2022-12-03T11:38:00.435Z,991.6653
2022-12-03T11:39:00.579Z,991.6861
2022-12-03T11:40:00.765Z,991.4812
2022-12-03T11:41:00.878Z,991.7211
2022-12-03T11:42:01.019Z,991.4221
2022-12-03T11:43:01.165Z,991.6306
2022-12-03T11:44:00.306Z,991.7211
2022-12-03T11:45:00.479Z,991.6861
2022-12-03T11:46:04.269Z,991.4221